Pavillion, Wyoming
Current Conditions -  °F | °C
As of 3:53 PM on Tuesday 25 Nov 2014 (Local Time) from KRIW Reporting Station
Clear Clear  
Wind Chill: 34°   Ceiling: Unl
Heat Index: 43°   Visibility: 10mi
Dew Point: 29°   Wind: 22mph
Humidity: 58%   Direction: 310°NW
Pressure: 29.92"   Gusts: 31mph
Location:  43.24°N, 108.69°W
Report Text: KRIW 252253Z AUTO 31019G27KT 10SM CLR 06/M02 A2992 RMK AO2 PK WND 30032/2219 SLP141 T00611017
Loading
Personal Weather Stations






























Interactive Weather Map New forecast layout! Learn more

10-Day Weather Forecast

Advertisements
Track Severe Weather on mobile